Time;durP1;ratioP1;P1;durP2;ratioP2;P2;SDS_P1;SDS_P2;PMS_P1;PMS_P2;Temp;Humidity;BMP_temperature;BMP_pressure;BME280_temperature;BME280_humidity;BME280_pressure;Samples;Min_cycle;Max_cycle;Signal;HPM_P1;HPM_P2
2022/04/06 00:00:13;;;;;;;5.63;3.05;;;;;;;9.63;41.63;93442.88;4939456;28;20035;-75
2022/04/06 00:02:40;;;;;;;4.10;2.55;;;;;;;9.57;41.58;93436.94;4921995;28;20415;-74
2022/04/06 00:05:09;;;;;;;4.22;2.75;;;;;;;9.77;41.52;93462.81;4929363;28;20047;-74
2022/04/06 00:07:35;;;;;;;3.00;2.28;;;;;;;9.75;41.42;93464.22;4929413;28;20549;-74
2022/04/06 00:10:00;;;;;;;5.10;2.40;;;;;;;9.74;41.44;93465.31;4927257;28;20118;-74
2022/04/06 00:12:26;;;;;;;3.90;2.55;;;;;;;9.63;41.64;93458.78;4941197;28;20019;-73
2022/04/06 00:14:52;;;;;;;7.75;3.53;;;;;;;9.65;41.50;93465.34;4922676;28;20095;-74
2022/04/06 00:17:17;;;;;;;4.57;2.60;;;;;;;9.36;41.62;93441.31;4920800;28;20047;-75
2022/04/06 00:19:44;;;;;;;5.65;3.15;;;;;;;9.52;41.85;93460.19;4924524;28;20483;-76
2022/04/06 00:22:10;;;;;;;6.45;3.58;;;;;;;9.25;42.21;93432.91;4923849;28;20046;-74
2022/04/06 00:24:35;;;;;;;6.30;3.55;;;;;;;9.37;42.17;93459.59;4922966;28;20035;-74
2022/04/06 00:27:00;;;;;;;7.10;3.10;;;;;;;9.37;42.39;93459.59;4932812;28;20385;-74
2022/04/06 00:29:26;;;;;;;4.70;3.10;;;;;;;9.32;42.35;93441.19;4926400;28;20063;-74
2022/04/06 00:31:51;;;;;;;3.65;2.67;;;;;;;9.48;41.99;93459.28;4921275;28;20257;-73
2022/04/06 00:34:17;;;;;;;3.33;2.47;;;;;;;9.49;42.10;93458.94;4926942;28;20481;-73
2022/04/06 00:36:44;;;;;;;3.95;2.15;;;;;;;9.42;42.04;93464.75;4922647;28;20486;-74
2022/04/06 00:39:11;;;;;;;5.28;2.90;;;;;;;9.29;42.08;93463.00;4920466;28;20040;-75
2022/04/06 00:41:38;;;;;;;6.50;4.70;;;;;;;9.27;41.87;93462.56;4923298;28;20516;-73
2022/04/06 00:44:18;;;;;;;8.25;3.67;;;;;;;9.33;42.26;93474.59;4939342;28;20046;-72
2022/04/06 00:46:45;;;;;;;8.60;3.78;;;;;;;9.15;42.36;93465.03;4930691;28;20035;-73
2022/04/06 00:49:14;;;;;;;6.88;3.40;;;;;;;9.15;42.72;93477.53;4937616;28;20159;-73
2022/04/06 00:51:45;;;;;;;6.47;4.28;;;;;;;8.96;42.70;93449.41;4930048;28;20533;-73
2022/04/06 00:54:16;;;;;;;10.13;3.88;;;;;;;9.10;42.12;93481.09;4930902;28;20032;-73
2022/04/06 00:56:43;;;;;;;6.55;4.00;;;;;;;8.93;42.31;93443.94;4940728;28;20044;-73
2022/04/06 00:59:09;;;;;;;6.70;3.47;;;;;;;9.16;41.97;93469.25;4923216;28;20066;-75
2022/04/06 01:01:35;;;;;;;5.78;3.67;;;;;;;9.19;42.10;93470.53;4925597;28;20255;-72
2022/04/06 01:04:00;;;;;;;4.25;2.88;;;;;;;9.17;42.05;93470.06;4921688;28;20047;-74
2022/04/06 01:06:26;;;;;;;6.70;3.72;;;;;;;9.15;42.19;93469.56;4919415;28;20031;-72
2022/04/06 01:08:52;;;;;;;5.97;4.00;;;;;;;8.83;42.46;93439.72;4930535;28;20364;-74
2022/04/06 01:11:19;;;;;;;5.35;3.47;;;;;;;9.02;42.62;93479.22;4923634;28;20523;-73
2022/04/06 01:13:45;;;;;;;5.07;3.03;;;;;;;8.90;42.81;93444.59;4924079;28;20512;-73
2022/04/06 01:16:10;;;;;;;4.03;3.20;;;;;;;8.78;42.48;93441.75;4921141;28;20433;-73
2022/04/06 01:18:36;;;;;;;5.30;3.10;;;;;;;8.92;42.56;93468.91;4926339;28;20027;-75
2022/04/06 01:21:03;;;;;;;3.33;2.75;;;;;;;8.98;42.51;93481.72;4921676;28;20095;-74
2022/04/06 01:23:28;;;;;;;5.43;3.42;;;;;;;8.93;42.76;93470.47;4924078;28;20040;-72
2022/04/06 01:25:54;;;;;;;4.43;2.90;;;;;;;8.94;42.73;93472.81;4925273;28;20039;-73
2022/04/06 01:28:19;;;;;;;4.15;3.40;;;;;;;8.87;42.64;93456.56;4924906;28;20054;-74
2022/04/06 01:30:45;;;;;;;5.18;2.85;;;;;;;8.73;42.36;93433.94;4943563;28;20061;-73
2022/04/06 01:33:11;;;;;;;6.72;2.30;;;;;;;8.93;42.56;93449.25;4922747;28;20027;-72
2022/04/06 01:35:38;;;;;;;4.68;2.83;;;;;;;8.96;42.07;93464.53;4926326;28;20047;-74
2022/04/06 01:38:04;;;;;;;5.18;2.90;;;;;;;8.94;42.07;93456.13;4931221;28;20046;-73
2022/04/06 01:40:30;;;;;;;4.15;2.90;;;;;;;8.83;42.32;93447.69;4924361;28;20035;-75
2022/04/06 01:42:56;;;;;;;4.57;2.78;;;;;;;8.87;42.40;93464.53;4916867;28;20466;-75
2022/04/06 01:45:22;;;;;;;7.25;3.15;;;;;;;8.73;42.32;93441.91;4928602;28;20047;-74
2022/04/06 01:47:47;;;;;;;6.82;3.40;;;;;;;8.91;42.42;93462.81;4926658;28;20123;-74
2022/04/06 01:52:56;;;;;;;5.93;3.40;;;;;;;8.41;41.78;93387.44;4922658;28;20584;-74
2022/04/06 01:55:22;;;;;;;5.63;3.20;;;;;;;8.97;41.71;93474.06;4936541;28;20043;-75
2022/04/06 01:57:49;;;;;;;5.43;3.20;;;;;;;8.83;41.72;93449.56;4943214;28;20446;-74
2022/04/06 02:00:17;;;;;;;6.03;3.40;;;;;;;8.92;41.74;93468.91;4925307;28;20035;-72
2022/04/06 02:02:47;;;;;;;7.00;3.03;;;;;;;8.87;41.89;93471.72;4921047;28;20735;-75
2022/04/06 02:05:13;;;;;;;5.18;2.80;;;;;;;8.88;41.78;93478.59;4927806;28;20325;-72
2022/04/06 02:07:39;;;;;;;3.50;2.50;;;;;;;8.78;41.91;93468.25;4929538;28;20051;-72
2022/04/06 02:10:05;;;;;;;5.30;3.13;;;;;;;8.72;42.08;93474.78;4930810;28;20194;-74
2022/04/06 02:12:31;;;;;;;6.57;2.88;;;;;;;8.68;42.23;93455.31;4929122;28;20031;-73
2022/04/06 02:14:57;;;;;;;6.50;2.92;;;;;;;8.70;41.97;93453.13;4916895;28;20067;-72
2022/04/06 02:17:23;;;;;;;4.78;2.95;;;;;;;8.69;42.11;93456.88;4931754;28;20186;-73
2022/04/06 02:19:48;;;;;;;8.93;4.22;;;;;;;8.83;41.81;93481.38;4928251;28;20501;-74
2022/04/06 02:22:14;;;;;;;6.07;3.00;;;;;;;8.72;42.31;93480.88;4927015;28;20039;-75
2022/04/06 02:24:39;;;;;;;3.58;2.90;;;;;;;8.62;42.21;93488.34;4929221;28;20035;-75
2022/04/06 02:27:06;;;;;;;7.63;2.47;;;;;;;8.44;42.42;93464.44;4929075;28;20298;-74
2022/04/06 02:29:32;;;;;;;4.50;3.13;;;;;;;8.48;42.40;93469.91;4930791;28;20444;-75
2022/04/06 02:31:57;;;;;;;4.95;2.97;;;;;;;8.49;42.47;93466.97;4930488;28;20044;-74
2022/04/06 02:34:23;;;;;;;4.05;2.47;;;;;;;8.64;42.40;93491.47;4932695;28;20040;-75
2022/04/06 02:36:48;;;;;;;4.47;3.28;;;;;;;8.51;42.22;93475.38;4921314;28;20457;-75
2022/04/06 02:39:14;;;;;;;9.55;4.10;;;;;;;8.61;42.34;93489.44;4931437;28;20569;-75
2022/04/06 02:41:39;;;;;;;6.28;3.10;;;;;;;8.63;42.56;93481.94;4924858;28;20038;-74
2022/04/06 02:44:05;;;;;;;6.10;2.95;;;;;;;8.65;42.47;93493.81;4930839;28;20292;-75
2022/04/06 02:46:31;;;;;;;5.40;3.00;;;;;;;8.51;42.46;93470.06;4930913;28;20038;-75
2022/04/06 02:48:56;;;;;;;4.60;3.70;;;;;;;8.40;42.24;93466.16;4924677;28;20429;-74
2022/04/06 02:51:22;;;;;;;6.38;3.70;;;;;;;8.58;42.09;93496.13;4931321;28;20082;-75
2022/04/06 02:53:47;;;;;;;5.25;3.22;;;;;;;8.48;41.87;93477.84;4921915;28;21028;-74
2022/04/06 02:56:14;;;;;;;4.85;2.75;;;;;;;8.48;42.32;93505.16;4929540;28;20086;-74
2022/04/06 02:58:40;;;;;;;4.68;2.97;;;;;;;8.41;42.19;93478.28;4929110;28;20387;-74
2022/04/06 03:01:06;;;;;;;6.28;3.10;;;;;;;8.53;42.40;93499.72;4930803;28;20142;-74
2022/04/06 03:03:31;;;;;;;7.28;3.17;;;;;;;8.48;42.55;93499.06;4928298;28;20027;-74
2022/04/06 03:05:56;;;;;;;4.85;2.90;;;;;;;8.15;43.07;93477.44;4923912;28;20039;-74
2022/04/06 03:08:22;;;;;;;3.88;2.60;;;;;;;8.07;43.17;93464.94;4929483;28;20042;-73
2022/04/06 03:10:47;;;;;;;5.93;3.17;;;;;;;8.41;42.88;93507.44;4922091;28;20455;-75
2022/04/06 03:13:13;;;;;;;4.45;2.97;;;;;;;8.31;42.94;93493.72;4927389;28;20511;-75
2022/04/06 03:15:38;;;;;;;6.35;4.20;;;;;;;8.23;42.98;93474.03;4926396;28;20038;-75
2022/04/06 03:18:04;;;;;;;7.22;3.08;;;;;;;8.41;42.77;93504.78;4931833;28;20036;-74
2022/04/06 03:20:30;;;;;;;9.65;3.42;;;;;;;8.32;42.95;93498.69;4926275;28;20040;-73
2022/04/06 03:22:55;;;;;;;5.55;3.22;;;;;;;8.45;42.73;93508.41;4921021;28;20055;-74
2022/04/06 03:25:21;;;;;;;3.92;2.53;;;;;;;8.14;42.75;93467.91;4940825;28;20148;-74
2022/04/06 03:27:47;;;;;;;5.35;3.05;;;;;;;8.21;42.84;93492.13;4927323;28;20438;-74
2022/04/06 03:30:13;;;;;;;7.20;4.10;;;;;;;8.32;43.03;93516.44;4929399;28;20429;-75
2022/04/06 03:32:40;;;;;;;5.70;3.47;;;;;;;8.14;42.75;93497.06;4924590;28;20035;-74
2022/04/06 03:35:06;;;;;;;5.97;3.35;;;;;;;8.18;43.27;93513.13;4931267;28;20070;-74
2022/04/06 03:37:32;;;;;;;4.63;3.10;;;;;;;8.16;43.39;93518.75;4925648;28;20039;-73
2022/04/06 03:39:58;;;;;;;4.68;3.20;;;;;;;8.26;43.33;93526.44;4933499;28;20040;-73
2022/04/06 03:42:23;;;;;;;7.38;3.35;;;;;;;8.23;43.14;93505.03;4929145;28;20098;-73
2022/04/06 03:44:49;;;;;;;4.07;2.92;;;;;;;8.29;42.97;93507.25;4926624;28;20038;-74
2022/04/06 03:47:15;;;;;;;5.82;3.25;;;;;;;8.37;43.27;93519.75;4916861;28;20039;-73
2022/04/06 03:49:41;;;;;;;11.00;3.65;;;;;;;8.31;43.26;93518.34;4931613;28;20031;-73
2022/04/06 03:52:07;;;;;;;9.18;3.67;;;;;;;8.39;42.89;93514.94;4926010;28;20578;-73
2022/04/06 03:54:32;;;;;;;3.90;2.90;;;;;;;8.16;43.23;93492.25;4921382;28;20063;-73
2022/04/06 03:56:58;;;;;;;5.88;3.67;;;;;;;8.26;43.08;93525.63;4947839;28;20496;-75
2022/04/06 03:59:24;;;;;;;4.78;3.40;;;;;;;8.21;43.26;93531.84;4936936;28;20062;-73
2022/04/06 04:01:49;;;;;;;8.32;3.10;;;;;;;7.99;43.55;93510.69;4927995;28;20484;-76
2022/04/06 04:04:14;;;;;;;7.53;4.57;;;;;;;7.98;43.86;93543.53;4924871;28;20505;-72
2022/04/06 04:06:40;;;;;;;5.10;3.97;;;;;;;7.89;43.71;93532.13;4928325;28;20393;-72
2022/04/06 04:09:06;;;;;;;8.40;4.35;;;;;;;7.79;44.06;93522.56;4926401;28;20054;-75
2022/04/06 04:11:31;;;;;;;8.90;4.18;;;;;;;7.91;44.02;93551.16;4929806;28;20382;-74
2022/04/06 04:13:57;;;;;;;7.45;4.03;;;;;;;7.83;44.53;93543.91;4929210;28;20564;-74
2022/04/06 04:16:23;;;;;;;11.48;3.78;;;;;;;7.75;44.79;93536.72;4929356;28;20043;-75
2022/04/06 04:18:49;;;;;;;7.00;3.13;;;;;;;7.90;44.23;93544.28;4929020;28;20023;-73
2022/04/06 04:21:33;;;;;;;6.57;3.08;;;;;;;7.92;44.26;93552.72;4919402;28;20552;-75
2022/04/06 04:24:04;;;;;;;9.35;3.45;;;;;;;7.85;44.50;93541.75;4928398;28;20513;-72
2022/04/06 04:26:31;;;;;;;6.72;3.42;;;;;;;7.98;44.36;93551.50;4937841;28;20585;-75
2022/04/06 04:28:56;;;;;;;5.43;3.35;;;;;;;8.07;44.15;93549.69;4940153;28;20035;-74
2022/04/06 04:31:22;;;;;;;4.13;3.05;;;;;;;8.12;44.00;93558.28;4935729;28;20525;-74
2022/04/06 04:33:48;;;;;;;7.88;3.00;;;;;;;8.19;44.28;93557.84;4933645;28;20055;-74
2022/04/06 04:36:15;;;;;;;5.65;3.60;;;;;;;8.24;43.89;93562.25;4926643;28;20031;-74
2022/04/06 04:38:42;;;;;;;4.57;3.33;;;;;;;8.31;43.31;93546.69;4930767;28;20047;-74
2022/04/06 04:41:08;;;;;;;6.30;3.85;;;;;;;8.55;43.34;93571.75;4926008;28;20059;-75
2022/04/06 04:43:34;;;;;;;7.13;4.32;;;;;;;8.73;42.95;93571.81;4929964;28;20035;-75
2022/04/06 04:46:00;;;;;;;13.43;4.95;;;;;;;8.59;43.57;93577.22;4925125;28;20042;-74
2022/04/06 04:48:26;;;;;;;10.38;5.22;;;;;;;8.61;44.11;93579.56;4920888;28;20055;-75
2022/04/06 04:50:51;;;;;;;7.18;4.60;;;;;;;8.57;43.99;93572.22;4919170;28;20646;-75
2022/04/06 04:53:17;;;;;;;11.23;6.22;;;;;;;8.63;43.27;93556.19;4931756;28;20042;-74
2022/04/06 04:55:42;;;;;;;12.93;6.40;;;;;;;8.92;42.47;93593.56;4920878;28;20047;-75
2022/04/06 04:58:08;;;;;;;10.68;5.88;;;;;;;8.95;42.55;93574.41;4931831;28;20046;-74
2022/04/06 05:00:33;;;;;;;12.77;6.68;;;;;;;8.93;42.74;93569.38;4923494;28;20560;-75
2022/04/06 05:02:59;;;;;;;9.25;6.07;;;;;;;9.12;42.78;93590.38;4926934;28;20046;-75
2022/04/06 05:05:24;;;;;;;10.38;6.25;;;;;;;9.28;41.86;93585.41;4922320;28;21458;-75
2022/04/06 05:07:50;;;;;;;9.45;6.35;;;;;;;9.28;41.90;93577.44;4925343;28;20063;-74
2022/04/06 05:10:15;;;;;;;18.02;7.85;;;;;;;9.02;42.40;93611.84;4940478;28;20043;-75
2022/04/06 05:12:41;;;;;;;12.48;8.02;;;;;;;9.12;42.63;93608.94;4922345;28;21079;-74
2022/04/06 05:15:07;;;;;;;12.93;7.60;;;;;;;9.28;42.47;93615.38;4930815;28;20023;-74
2022/04/06 05:17:34;;;;;;;13.73;7.75;;;;;;;9.44;42.08;93597.13;4920202;28;20044;-74
2022/04/06 05:19:59;;;;;;;11.40;7.80;;;;;;;9.33;43.03;93612.59;4925633;28;20490;-75
2022/04/06 05:22:25;;;;;;;14.30;9.65;;;;;;;8.89;44.10;93623.34;4924333;28;20081;-74
2022/04/06 05:24:51;;;;;;;12.27;8.00;;;;;;;9.03;43.75;93624.03;4936402;28;20537;-75
2022/04/06 05:27:16;;;;;;;18.33;9.10;;;;;;;9.36;43.29;93625.22;4920945;28;20023;-75
2022/04/06 05:29:42;;;;;;;15.27;8.20;;;;;;;8.75;43.95;93610.22;4931492;28;20553;-75
2022/04/06 05:32:08;;;;;;;17.27;8.82;;;;;;;8.77;43.45;93609.88;4921841;28;20054;-74
2022/04/06 05:34:35;;;;;;;15.77;8.80;;;;;;;8.80;43.59;93619.88;4918930;28;20500;-76
2022/04/06 05:37:03;;;;;;;16.55;8.80;;;;;;;8.28;44.18;93598.41;4927643;28;20553;-74
2022/04/06 05:39:29;;;;;;;17.60;9.63;;;;;;;8.46;44.16;93621.28;4921971;28;20087;-76
2022/04/06 05:41:54;;;;;;;13.50;9.13;;;;;;;8.97;43.12;93593.41;4928707;28;20036;-74
2022/04/06 05:44:20;;;;;;;15.90;8.82;;;;;;;9.17;43.48;93603.50;4928311;28;20506;-75
2022/04/06 05:46:45;;;;;;;18.35;10.35;;;;;;;9.35;42.44;93636.16;4928543;28;20035;-75
2022/04/06 05:49:11;;;;;;;25.90;12.10;;;;;;;9.40;43.16;93636.78;4920360;28;20043;-75
2022/04/06 05:51:36;;;;;;;22.25;9.20;;;;;;;9.72;42.34;93622.31;4924710;28;20621;-75
2022/04/06 05:54:03;;;;;;;18.45;9.60;;;;;;;9.93;41.58;93633.09;4928811;28;20030;-75
2022/04/06 05:56:32;;;;;;;17.25;9.75;;;;;;;8.89;42.87;93624.13;4924881;28;20027;-74
2022/04/06 05:58:58;;;;;;;25.77;9.40;;;;;;;9.64;42.25;93627.59;4924985;28;20063;-75
2022/04/06 06:01:23;;;;;;;19.38;9.52;;;;;;;9.28;42.72;93641.94;4926829;28;20594;-74
2022/04/06 06:03:51;;;;;;;15.55;9.02;;;;;;;9.38;43.22;93649.59;4924043;28;20035;-74
2022/04/06 06:06:16;;;;;;;21.05;10.63;;;;;;;9.96;40.88;93645.75;4929264;28;20301;-75
2022/04/06 06:08:41;;;;;;;23.27;10.73;;;;;;;10.14;40.37;93646.53;4940599;28;20039;-75
2022/04/06 06:11:08;;;;;;;18.45;11.13;;;;;;;10.22;40.83;93643.84;4922667;28;20051;-74
2022/04/06 06:13:33;;;;;;;20.92;11.85;;;;;;;9.85;41.79;93639.19;4928523;28;20051;-75
2022/04/06 06:16:00;;;;;;;20.65;10.63;;;;;;;9.79;42.17;93646.53;4920587;28;20036;-74
2022/04/06 06:18:26;;;;;;;15.52;9.85;;;;;;;10.06;40.68;93653.44;4928674;28;20038;-74
2022/04/06 06:20:51;;;;;;;18.25;9.18;;;;;;;9.90;40.84;93628.41;4928043;28;20038;-75
2022/04/06 06:23:17;;;;;;;18.33;9.95;;;;;;;9.29;41.97;93632.84;4926221;28;20436;-75
2022/04/06 06:25:42;;;;;;;15.00;9.40;;;;;;;9.83;41.10;93650.13;4924754;28;20077;-75
2022/04/06 06:28:08;;;;;;;17.77;10.65;;;;;;;9.97;40.79;93627.94;4924143;28;20414;-75
2022/04/06 06:30:34;;;;;;;21.58;8.63;;;;;;;9.78;41.52;93654.81;4926338;28;20126;-75
2022/04/06 06:32:59;;;;;;;18.80;8.75;;;;;;;9.79;42.32;93651.84;4925666;28;20061;-75
2022/04/06 06:35:25;;;;;;;19.33;8.82;;;;;;;9.62;42.63;93649.19;4927736;28;20114;-74
2022/04/06 06:37:53;;;;;;;19.60;6.55;;;;;;;9.74;42.92;93643.25;4923956;28;20047;-75
2022/04/06 06:40:19;;;;;;;16.73;9.73;;;;;;;9.90;42.57;93647.00;4926683;28;20031;-74
2022/04/06 06:42:46;;;;;;;15.88;8.68;;;;;;;10.36;42.37;93637.59;4926215;28;20032;-74
2022/04/06 06:45:11;;;;;;;16.45;9.30;;;;;;;10.38;42.13;93614.94;4925710;28;20107;-75
2022/04/06 06:47:40;;;;;;;22.45;10.40;;;;;;;9.81;42.66;93619.66;4925628;28;20082;-75
2022/04/06 06:50:06;;;;;;;15.52;9.82;;;;;;;9.75;43.80;93650.13;4923694;28;20148;-75
2022/04/06 06:52:34;;;;;;;16.63;10.05;;;;;;;9.69;43.34;93625.59;4924498;28;20061;-74
2022/04/06 06:55:03;;;;;;;19.40;10.38;;;;;;;9.80;42.96;93639.34;4927923;28;20059;-75
2022/04/06 06:57:29;;;;;;;19.23;10.68;;;;;;;10.31;42.57;93641.22;4934001;28;20031;-75
2022/04/06 06:59:57;;;;;;;18.23;9.60;;;;;;;10.03;42.62;93622.16;4942402;28;20047;-76
2022/04/06 07:02:23;;;;;;;18.50;8.00;;;;;;;10.03;42.00;93608.06;4932604;28;20042;-74
2022/04/06 07:04:49;;;;;;;19.75;7.97;;;;;;;10.67;41.68;93638.97;4924680;28;20410;-74
2022/04/06 07:07:16;;;;;;;12.98;7.25;;;;;;;10.49;41.45;93626.03;4930959;28;20042;-74
2022/04/06 07:09:41;;;;;;;19.73;8.70;;;;;;;10.22;42.09;93614.63;4928500;28;20028;-74
2022/04/06 07:12:07;;;;;;;16.98;8.80;;;;;;;10.56;41.46;93627.09;4932829;28;20183;-74
2022/04/06 07:14:33;;;;;;;13.20;7.60;;;;;;;10.26;41.63;93622.78;4928473;28;20090;-76
2022/04/06 07:16:59;;;;;;;14.85;9.65;;;;;;;10.55;41.84;93638.84;4926912;28;20409;-75
2022/04/06 07:19:25;;;;;;;17.40;7.82;;;;;;;10.51;41.55;93624.63;4927158;28;20093;-75
2022/04/06 07:21:50;;;;;;;13.43;7.57;;;;;;;10.56;41.35;93643.06;4929676;28;20027;-75
2022/04/06 07:24:16;;;;;;;14.20;7.18;;;;;;;10.80;41.07;93645.22;4928516;28;20074;-75
2022/04/06 07:26:42;;;;;;;15.18;7.47;;;;;;;10.84;40.49;93632.81;4923399;28;20414;-75
2022/04/06 07:29:11;;;;;;;13.07;7.75;;;;;;;10.76;39.82;93638.19;4926133;28;20506;-74
2022/04/06 07:31:39;;;;;;;13.27;6.68;;;;;;;11.25;38.81;93645.47;4926818;28;20040;-74
2022/04/06 07:34:05;;;;;;;11.02;6.55;;;;;;;11.59;37.51;93633.88;4923378;28;20134;-74
2022/04/06 07:36:33;;;;;;;9.27;5.72;;;;;;;11.20;39.01;93656.31;4922317;28;20551;-73
2022/04/06 07:39:00;;;;;;;8.38;5.22;;;;;;;11.22;38.54;93640.81;4925227;28;20148;-74
2022/04/06 07:41:25;;;;;;;12.00;5.78;;;;;;;11.42;38.25;93647.28;4921403;28;20044;-74
2022/04/06 07:43:51;;;;;;;18.40;14.70;;;;;;;11.58;38.38;93635.78;4938859;28;20809;-74
2022/04/06 07:46:16;;;;;;;15.73;7.10;;;;;;;11.60;39.37;93648.75;4928725;28;20036;-73
2022/04/06 07:48:42;;;;;;;12.05;6.30;;;;;;;11.32;39.38;93637.78;4922512;28;20028;-74
2022/04/06 07:51:07;;;;;;;12.05;6.00;;;;;;;11.10;39.89;93640.72;4925479;28;20086;-73
2022/04/06 07:53:32;;;;;;;12.80;5.55;;;;;;;11.11;39.71;93652.91;4926166;28;20126;-77
2022/04/06 07:55:58;;;;;;;8.93;5.78;;;;;;;11.08;40.12;93619.72;4918261;28;20162;-74
2022/04/06 07:58:24;;;;;;;11.48;7.22;;;;;;;10.76;40.02;93628.28;4923386;28;20451;-73
2022/04/06 08:00:49;;;;;;;14.10;6.53;;;;;;;11.54;38.39;93648.16;4922316;28;20039;-74
2022/04/06 08:03:15;;;;;;;14.60;6.10;;;;;;;11.17;39.27;93631.13;4923049;28;20023;-74
2022/04/06 08:05:40;;;;;;;12.00;6.32;;;;;;;10.97;38.91;93642.47;4923582;28;20450;-74
2022/04/06 08:08:06;;;;;;;17.70;8.93;;;;;;;11.14;39.21;93618.47;4929192;28;20071;-74
2022/04/06 08:10:31;;;;;;;10.18;6.60;;;;;;;11.33;38.73;93627.91;4922433;28;20063;-73
2022/04/06 08:12:57;;;;;;;9.60;5.68;;;;;;;11.24;39.19;93635.16;4919294;28;20051;-74
2022/04/06 08:15:23;;;;;;;11.20;5.38;;;;;;;11.40;38.71;93638.81;4930346;28;20023;-74
2022/04/06 08:17:49;;;;;;;9.75;5.63;;;;;;;11.49;38.35;93616.38;4919612;28;20501;-74
2022/04/06 08:20:16;;;;;;;7.35;5.13;;;;;;;11.75;38.31;93613.56;4928332;28;20043;-74
2022/04/06 08:22:44;;;;;;;8.55;5.10;;;;;;;12.36;38.88;93637.84;4924200;28;20536;-73
2022/04/06 08:25:10;;;;;;;12.65;4.85;;;;;;;12.27;37.05;93637.16;4921609;28;20929;-74
2022/04/06 08:27:41;;;;;;;10.70;5.63;;;;;;;11.84;37.82;93622.28;4918466;28;20035;-73
2022/04/06 08:30:09;;;;;;;8.07;5.55;;;;;;;11.70;37.65;93627.06;4927551;28;20027;-73
2022/04/06 08:32:34;;;;;;;7.53;4.82;;;;;;;12.20;38.28;93640.34;4926262;28;20370;-73
2022/04/06 08:35:00;;;;;;;17.15;6.85;;;;;;;11.94;38.56;93643.19;4925515;28;20628;-74
2022/04/06 08:37:29;;;;;;;14.82;5.30;;;;;;;11.74;38.73;93617.31;4930328;28;20306;-73
2022/04/06 08:39:54;;;;;;;11.80;5.38;;;;;;;12.07;37.82;93633.41;4928515;28;21596;-74
2022/04/06 08:42:20;;;;;;;8.63;4.13;;;;;;;12.14;37.78;93640.84;4925054;28;20050;-73
2022/04/06 08:44:46;;;;;;;35.08;11.07;;;;;;;12.38;37.04;93619.63;4923597;28;20146;-73
2022/04/06 08:47:11;;;;;;;22.17;9.68;;;;;;;12.57;36.38;93633.25;4928087;28;20123;-74
2022/04/06 08:49:40;;;;;;;11.30;5.72;;;;;;;12.62;35.92;93619.72;4928666;28;20331;-74
2022/04/06 08:52:08;;;;;;;6.78;4.78;;;;;;;12.74;36.06;93611.75;4928629;28;20456;-74
2022/04/06 08:54:34;;;;;;;5.57;3.85;;;;;;;13.06;35.03;93625.34;4925117;28;20482;-74
2022/04/06 08:56:59;;;;;;;11.77;4.63;;;;;;;13.18;35.55;93604.00;4927499;28;20054;-74
2022/04/06 08:59:25;;;;;;;8.07;5.38;;;;;;;13.46;35.28;93610.22;4932167;28;20218;-74
2022/04/06 09:01:50;;;;;;;9.18;4.85;;;;;;;13.13;35.94;93612.25;4927243;28;20485;-74
2022/04/06 09:04:16;;;;;;;19.55;10.40;;;;;;;13.36;35.74;93591.19;4922602;28;20568;-74
2022/04/06 09:06:44;;;;;;;8.05;4.70;;;;;;;13.23;35.65;93615.25;4923731;28;20419;-73
2022/04/06 09:09:10;;;;;;;7.10;3.40;;;;;;;13.34;35.13;93612.94;4925177;28;20028;-74
2022/04/06 09:11:44;;;;;;;6.63;4.20;;;;;;;12.88;34.94;93564.19;4928922;28;20102;-73
2022/04/06 09:14:11;;;;;;;8.25;3.40;;;;;;;13.11;34.41;93595.75;4923443;28;20036;-73
2022/04/06 09:16:37;;;;;;;8.90;4.72;;;;;;;13.36;34.20;93561.81;4928277;28;20042;-73
2022/04/06 09:19:12;;;;;;;8.40;3.15;;;;;;;13.27;32.66;93602.00;4922655;28;20389;-74
2022/04/06 09:21:42;;;;;;;5.63;3.17;;;;;;;13.33;33.29;93611.34;4924464;28;20023;-73
2022/04/06 09:24:19;;;;;;;9.48;3.63;;;;;;;13.68;31.41;93568.94;4924858;28;20545;-74
2022/04/06 09:26:56;;;;;;;7.65;4.07;;;;;;;14.17;32.85;93582.94;4926624;28;20071;-74
2022/04/06 09:29:22;;;;;;;6.97;4.35;;;;;;;14.17;32.72;93578.34;4939205;28;20031;-74
2022/04/06 09:31:48;;;;;;;6.07;3.97;;;;;;;14.30;31.57;93592.44;4922749;28;20082;-73
2022/04/06 09:34:14;;;;;;;7.78;3.63;;;;;;;13.80;32.38;93566.22;4924064;28;20047;-74
2022/04/06 09:36:39;;;;;;;4.93;3.22;;;;;;;13.96;32.14;93563.63;4928576;28;20122;-74
2022/04/06 09:39:06;;;;;;;5.90;3.25;;;;;;;13.50;31.68;93547.00;4927413;28;20027;-74
2022/04/06 09:41:32;;;;;;;5.25;3.08;;;;;;;13.70;31.76;93582.72;4920348;28;20143;-74
2022/04/06 09:50:16;;;;;;;6.13;3.60;;;;;;;14.62;30.94;93568.47;4928863;28;20175;-74
2022/04/06 09:52:43;;;;;;;9.00;4.88;;;;;;;14.76;31.79;93566.94;4938996;28;20039;-73
2022/04/06 09:55:11;;;;;;;4.55;2.50;;;;;;;14.12;30.63;93551.84;4916543;28;20372;-74
2022/04/06 09:57:51;;;;;;;3.22;2.45;;;;;;;13.99;30.62;93552.22;4925555;28;20039;-74
2022/04/06 10:00:19;;;;;;;6.32;3.15;;;;;;;13.95;31.24;93562.03;4918321;29;20670;-74
2022/04/06 10:02:47;;;;;;;3.80;2.10;;;;;;;14.34;30.65;93555.88;4917323;28;20039;-73
2022/04/06 10:05:14;;;;;;;4.50;2.70;;;;;;;13.56;30.59;93548.31;4925339;28;20384;-74
2022/04/06 10:07:43;;;;;;;4.45;2.30;;;;;;;14.02;33.02;93535.53;4911870;28;20035;-74
2022/04/06 10:10:12;;;;;;;2.72;2.15;;;;;;;14.55;31.21;93548.44;4920887;28;20296;-74
2022/04/06 10:12:39;;;;;;;3.97;1.80;;;;;;;14.77;29.83;93543.59;4915948;28;20058;-73
2022/04/06 10:15:05;;;;;;;5.55;2.53;;;;;;;14.38;30.09;93529.97;4921592;28;20834;-74
2022/04/06 10:17:31;;;;;;;5.95;2.00;;;;;;;13.99;29.68;93517.47;4915932;28;20051;-73
2022/04/06 10:20:35;;;;;;;5.10;2.35;;;;;;;14.68;31.47;93532.28;4935584;28;20028;-74
2022/04/06 10:23:35;;;;;;;9.73;2.67;;;;;;;14.80;nan;93533.00;4917502;28;20117;-73
2022/04/06 10:26:06;;;;;;;7.60;2.45;;;;;;;14.47;30.22;93529.84;4922971;28;20098;-73
2022/04/06 10:28:36;;;;;;;4.93;1.88;;;;;;;14.82;30.76;93525.38;4921887;28;20061;-74
2022/04/06 10:31:11;;;;;;;2.80;2.15;;;;;;;15.22;30.63;93519.81;4920545;28;20035;-74
2022/04/06 10:33:37;;;;;;;4.90;2.25;;;;;;;14.72;31.42;93515.19;4919578;28;20674;-73
2022/04/06 10:36:32;;;;;;;5.10;2.85;;;;;;;14.78;30.79;93516.50;4925449;29;20016;-74
2022/04/06 10:39:18;;;;;;;6.68;3.15;;;;;;;14.97;30.32;93508.53;4921913;29;20050;-74
2022/04/06 10:42:18;;;;;;;6.15;2.55;;;;;;;14.70;30.08;93461.22;4916948;28;20035;-74
2022/04/06 10:44:44;;;;;;;6.30;2.70;;;;;;;15.04;30.14;93494.53;4918935;28;20040;-75
2022/04/06 10:47:12;;;;;;;5.93;3.20;;;;;;;14.87;29.93;93500.25;4930873;28;20053;-74
2022/04/06 10:49:38;;;;;;;3.55;2.47;;;;;;;15.19;30.53;93496.41;4927564;28;20514;-74
2022/04/06 10:52:22;;;;;;;5.00;3.38;;;;;;;15.25;29.24;93435.31;4916041;28;20047;-74
2022/04/06 10:54:48;;;;;;;10.70;3.28;;;;;;;15.43;29.44;93469.38;4925210;28;20617;-74
2022/04/06 10:57:14;;;;;;;10.23;3.35;;;;;;;15.62;29.46;93482.03;4927203;28;20042;-74
2022/04/06 10:59:40;;;;;;;6.70;2.80;;;;;;;15.72;28.74;93469.97;4919931;28;20042;-76
2022/04/06 11:02:27;;;;;;;6.72;3.28;;;;;;;15.76;28.86;93473.50;4927494;28;20704;-73
2022/04/06 11:04:53;;;;;;;7.32;2.88;;;;;;;15.70;28.89;93461.50;4921168;28;20524;-75
2022/04/06 11:10:29;;;;;;;4.93;2.35;;;;;;;15.79;28.79;93448.69;4917187;28;20520;-74
2022/04/06 11:13:03;;;;;;;4.10;2.50;;;;;;;15.98;28.38;93450.56;4912820;28;20777;-74
2022/04/06 11:15:34;;;;;;;5.88;2.90;;;;;;;16.10;28.73;93467.25;4926207;29;20702;-73
2022/04/06 11:18:00;;;;;;;4.00;2.45;;;;;;;15.99;29.19;93463.59;4923717;29;20391;-74
2022/04/06 11:20:34;;;;;;;6.22;2.97;;;;;;;16.37;28.82;93459.34;4928180;28;20075;-73
2022/04/06 11:23:00;;;;;;;6.43;2.70;;;;;;;16.49;28.28;93453.78;4941217;28;20197;-73
2022/04/06 11:25:28;;;;;;;11.18;4.00;;;;;;;16.03;28.44;93426.91;4919973;28;20637;-74
2022/04/06 11:27:55;;;;;;;4.65;2.70;;;;;;;15.81;29.67;93454.44;4922740;28;20251;-73
2022/04/06 11:30:26;;;;;;;6.40;3.47;;;;;;;15.64;29.07;93454.88;4922836;28;20039;-73
2022/04/06 11:32:56;;;;;;;6.53;3.40;;;;;;;15.80;29.14;93434.13;4932675;28;20062;-74
2022/04/06 11:35:30;;;;;;;10.25;3.63;;;;;;;16.12;29.18;93440.88;4920983;28;20048;-73
2022/04/06 11:37:56;;;;;;;5.93;2.60;;;;;;;15.46;28.58;93420.44;4922585;28;20422;-74
2022/04/06 11:40:24;;;;;;;7.18;2.95;;;;;;;15.45;28.73;93434.97;4923372;28;20407;-73
2022/04/06 11:42:56;;;;;;;6.50;2.95;;;;;;;15.77;29.02;93424.13;4920088;28;20428;-74
2022/04/06 11:45:25;;;;;;;5.35;3.33;;;;;;;15.51;29.09;93410.56;4923615;28;20107;-74